sensor_id;sensor_type;location;lat;lon;timestamp;pressure;altitude;pressure_sealevel;temperature;humidity
48216;BME280;34005;48.844;10.098;2022-08-19T00:00:17;96203.34;;;22.73;59.06
48216;BME280;34005;48.844;10.098;2022-08-19T00:02:50;96194.59;;;22.73;60.27
48216;BME280;34005;48.844;10.098;2022-08-19T00:05:29;96196.44;;;22.72;61.49
48216;BME280;34005;48.844;10.098;2022-08-19T00:08:14;96191.41;;;22.71;61.04
48216;BME280;34005;48.844;10.098;2022-08-19T00:10:50;96193.00;;;22.67;59.60
48216;BME280;34005;48.844;10.098;2022-08-19T00:13:21;96201.53;;;22.63;60.48
48216;BME280;34005;48.844;10.098;2022-08-19T00:15:51;96205.50;;;22.61;59.60
48216;BME280;34005;48.844;10.098;2022-08-19T00:18:34;96200.19;;;22.61;62.01
48216;BME280;34005;48.844;10.098;2022-08-19T00:21:07;96213.75;;;22.59;61.24
48216;BME280;34005;48.844;10.098;2022-08-19T00:23:40;96200.72;;;22.58;60.53
48216;BME280;34005;48.844;10.098;2022-08-19T00:26:12;96207.38;;;22.55;60.71
48216;BME280;34005;48.844;10.098;2022-08-19T00:28:43;96207.91;;;22.52;60.28
48216;BME280;34005;48.844;10.098;2022-08-19T00:31:17;96206.31;;;22.51;61.17
48216;BME280;34005;48.844;10.098;2022-08-19T00:33:49;96199.41;;;22.50;62.57
48216;BME280;34005;48.844;10.098;2022-08-19T00:36:22;96189.28;;;22.47;61.19
48216;BME280;34005;48.844;10.098;2022-08-19T00:38:53;96186.41;;;22.44;61.95
48216;BME280;34005;48.844;10.098;2022-08-19T00:41:27;96177.88;;;22.41;62.72
48216;BME280;34005;48.844;10.098;2022-08-19T00:44:14;96184.50;;;22.39;61.68
48216;BME280;34005;48.844;10.098;2022-08-19T00:46:57;96177.88;;;22.36;62.86
48216;BME280;34005;48.844;10.098;2022-08-19T00:49:31;96176.56;;;22.34;62.28
48216;BME280;34005;48.844;10.098;2022-08-19T00:52:14;96185.06;;;22.31;61.93
48216;BME280;34005;48.844;10.098;2022-08-19T00:54:45;96178.16;;;22.30;63.60
48216;BME280;34005;48.844;10.098;2022-08-19T00:57:29;96184.00;;;22.27;62.69
48216;BME280;34005;48.844;10.098;2022-08-19T01:00:08;96187.72;;;22.26;65.89
48216;BME280;34005;48.844;10.098;2022-08-19T01:02:47;96193.84;;;22.26;65.70
48216;BME280;34005;48.844;10.098;2022-08-19T01:05:35;96206.31;;;22.26;65.88
48216;BME280;34005;48.844;10.098;2022-08-19T01:08:16;96212.69;;;22.25;65.91
48216;BME280;34005;48.844;10.098;2022-08-19T01:11:08;96205.78;;;22.24;65.14
48216;BME280;34005;48.844;10.098;2022-08-19T01:13:39;96216.94;;;22.26;66.03
48216;BME280;34005;48.844;10.098;2022-08-19T01:16:18;96196.75;;;22.25;65.45
48216;BME280;34005;48.844;10.098;2022-08-19T01:18:51;96198.88;;;22.23;64.95
48216;BME280;34005;48.844;10.098;2022-08-19T01:21:30;96190.34;;;22.20;64.50
48216;BME280;34005;48.844;10.098;2022-08-19T01:24:04;96196.19;;;22.17;63.60
48216;BME280;34005;48.844;10.098;2022-08-19T01:26:42;96190.34;;;22.15;63.74
48216;BME280;34005;48.844;10.098;2022-08-19T01:29:14;96199.91;;;22.16;66.34
48216;BME280;34005;48.844;10.098;2022-08-19T01:31:52;96199.91;;;22.16;66.49
48216;BME280;34005;48.844;10.098;2022-08-19T01:34:25;96204.69;;;22.14;65.89
48216;BME280;34005;48.844;10.098;2022-08-19T01:36:57;96206.00;;;22.12;65.34
48216;BME280;34005;48.844;10.098;2022-08-19T01:39:40;96201.78;;;22.11;65.46
48216;BME280;34005;48.844;10.098;2022-08-19T01:42:09;96200.97;;;22.10;66.92
48216;BME280;34005;48.844;10.098;2022-08-19T01:44:39;96199.13;;;22.11;66.93
48216;BME280;34005;48.844;10.098;2022-08-19T01:47:07;96208.94;;;22.10;67.04
48216;BME280;34005;48.844;10.098;2022-08-19T01:49:37;96195.94;;;22.09;67.01
48216;BME280;34005;48.844;10.098;2022-08-19T01:52:05;96199.63;;;22.08;67.30
48216;BME280;34005;48.844;10.098;2022-08-19T01:54:34;96187.16;;;22.03;65.64
48216;BME280;34005;48.844;10.098;2022-08-19T01:57:05;96185.03;;;22.00;66.08
48216;BME280;34005;48.844;10.098;2022-08-19T01:59:34;96194.59;;;21.96;65.93
48216;BME280;34005;48.844;10.098;2022-08-19T02:02:04;96191.41;;;21.94;67.30
48216;BME280;34005;48.844;10.098;2022-08-19T02:04:33;96196.72;;;21.94;66.72
48216;BME280;34005;48.844;10.098;2022-08-19T02:07:01;96196.97;;;21.92;66.64
48216;BME280;34005;48.844;10.098;2022-08-19T02:09:30;96202.53;;;21.91;66.33
48216;BME280;34005;48.844;10.098;2022-08-19T02:11:59;96207.06;;;21.90;67.13
48216;BME280;34005;48.844;10.098;2022-08-19T02:14:27;96207.34;;;21.89;66.16
48216;BME280;34005;48.844;10.098;2022-08-19T02:16:54;96214.75;;;21.87;66.21
48216;BME280;34005;48.844;10.098;2022-08-19T02:19:22;96205.19;;;21.86;67.22
48216;BME280;34005;48.844;10.098;2022-08-19T02:21:50;96219.53;;;21.85;67.06
48216;BME280;34005;48.844;10.098;2022-08-19T02:24:17;96217.38;;;21.81;66.26
48216;BME280;34005;48.844;10.098;2022-08-19T02:26:45;96225.34;;;21.81;67.25
48216;BME280;34005;48.844;10.098;2022-08-19T02:29:14;96229.88;;;21.81;66.94
48216;BME280;34005;48.844;10.098;2022-08-19T02:31:42;96232.53;;;21.81;67.61
48216;BME280;34005;48.844;10.098;2022-08-19T02:34:10;96231.75;;;21.80;66.96
48216;BME280;34005;48.844;10.098;2022-08-19T02:36:37;96230.66;;;21.76;65.71
48216;BME280;34005;48.844;10.098;2022-08-19T02:39:08;96219.22;;;21.71;65.11
48216;BME280;34005;48.844;10.098;2022-08-19T02:41:35;96221.88;;;21.71;65.33
48216;BME280;34005;48.844;10.098;2022-08-19T02:44:03;96222.94;;;21.70;66.25
48216;BME280;34005;48.844;10.098;2022-08-19T02:46:52;96233.81;;;21.68;65.99
48216;BME280;34005;48.844;10.098;2022-08-19T02:49:20;96233.28;;;21.66;65.71
48216;BME280;34005;48.844;10.098;2022-08-19T02:51:47;96234.34;;;21.65;66.15
48216;BME280;34005;48.844;10.098;2022-08-19T02:54:15;96211.50;;;21.64;66.74
48216;BME280;34005;48.844;10.098;2022-08-19T02:56:43;96230.38;;;21.63;66.39
48216;BME280;34005;48.844;10.098;2022-08-19T02:59:11;96221.06;;;21.60;65.42
48216;BME280;34005;48.844;10.098;2022-08-19T03:01:40;96226.34;;;21.60;67.32
48216;BME280;34005;48.844;10.098;2022-08-19T03:04:12;96225.81;;;21.58;66.56
48216;BME280;34005;48.844;10.098;2022-08-19T03:06:43;96226.34;;;21.55;65.32
48216;BME280;34005;48.844;10.098;2022-08-19T03:09:12;96232.97;;;21.52;65.82
48216;BME280;34005;48.844;10.098;2022-08-19T03:11:40;96222.63;;;21.51;66.13
48216;BME280;34005;48.844;10.098;2022-08-19T03:14:09;96214.13;;;21.49;66.73
48216;BME280;34005;48.844;10.098;2022-08-19T03:16:41;96208.28;;;21.47;66.69
48216;BME280;34005;48.844;10.098;2022-08-19T03:19:10;96203.50;;;21.44;66.98
48216;BME280;34005;48.844;10.098;2022-08-19T03:21:38;96201.59;;;21.39;66.68
48216;BME280;34005;48.844;10.098;2022-08-19T03:24:08;96194.41;;;21.34;68.03
48216;BME280;34005;48.844;10.098;2022-08-19T03:26:38;96196.53;;;21.32;67.09
48216;BME280;34005;48.844;10.098;2022-08-19T03:29:07;96198.66;;;21.30;66.81
48216;BME280;34005;48.844;10.098;2022-08-19T03:31:39;96200.75;;;21.28;66.63
48216;BME280;34005;48.844;10.098;2022-08-19T03:34:21;96210.84;;;21.26;66.67
48216;BME280;34005;48.844;10.098;2022-08-19T03:36:53;96212.69;;;21.26;67.29
48216;BME280;34005;48.844;10.098;2022-08-19T03:39:21;96219.81;;;21.25;67.84
48216;BME280;34005;48.844;10.098;2022-08-19T03:41:51;96214.00;;;21.23;67.06
48216;BME280;34005;48.844;10.098;2022-08-19T03:44:39;96211.63;;;21.22;67.46
48216;BME280;34005;48.844;10.098;2022-08-19T03:47:08;96212.66;;;21.20;68.16
48216;BME280;34005;48.844;10.098;2022-08-19T03:49:40;96211.88;;;21.20;68.47
48216;BME280;34005;48.844;10.098;2022-08-19T03:52:07;96213.72;;;21.19;68.09
48216;BME280;34005;48.844;10.098;2022-08-19T03:54:36;96219.28;;;21.18;68.24
48216;BME280;34005;48.844;10.098;2022-08-19T03:57:04;96220.88;;;21.19;67.87
48216;BME280;34005;48.844;10.098;2022-08-19T03:59:35;96218.25;;;21.19;69.51
48216;BME280;34005;48.844;10.098;2022-08-19T04:02:10;96215.03;;;21.17;68.62
48216;BME280;34005;48.844;10.098;2022-08-19T04:04:41;96223.25;;;21.15;68.04
48216;BME280;34005;48.844;10.098;2022-08-19T04:07:11;96219.81;;;21.15;69.28
48216;BME280;34005;48.844;10.098;2022-08-19T04:09:42;96216.38;;;21.14;68.39
48216;BME280;34005;48.844;10.098;2022-08-19T04:12:10;96212.34;;;21.12;67.88
48216;BME280;34005;48.844;10.098;2022-08-19T04:14:37;96216.06;;;21.11;67.94
48216;BME280;34005;48.844;10.098;2022-08-19T04:17:05;96212.88;;;21.09;68.30
48216;BME280;34005;48.844;10.098;2022-08-19T04:19:35;96212.88;;;21.09;68.40
48216;BME280;34005;48.844;10.098;2022-08-19T04:22:06;96204.91;;;21.09;69.03
48216;BME280;34005;48.844;10.098;2022-08-19T04:24:34;96212.09;;;21.08;68.38
48216;BME280;34005;48.844;10.098;2022-08-19T04:27:03;96219.22;;;21.08;69.54
48216;BME280;34005;48.844;10.098;2022-08-19T04:29:32;96214.97;;;21.07;69.70
48216;BME280;34005;48.844;10.098;2022-08-19T04:32:01;96210.75;;;21.06;68.98
48216;BME280;34005;48.844;10.098;2022-08-19T04:34:36;96212.59;;;21.05;68.45
48216;BME280;34005;48.844;10.098;2022-08-19T04:37:26;96217.88;;;21.05;69.90
48216;BME280;34005;48.844;10.098;2022-08-19T04:40:03;96217.09;;;21.05;69.78
48216;BME280;34005;48.844;10.098;2022-08-19T04:42:48;96218.16;;;21.04;68.47
48216;BME280;34005;48.844;10.098;2022-08-19T04:45:16;96216.81;;;21.01;68.17
48216;BME280;34005;48.844;10.098;2022-08-19T04:47:44;96216.81;;;21.01;68.27
48216;BME280;34005;48.844;10.098;2022-08-19T04:50:23;96214.16;;;21.01;68.94
48216;BME280;34005;48.844;10.098;2022-08-19T04:52:58;96218.66;;;21.01;68.64
48216;BME280;34005;48.844;10.098;2022-08-19T04:58:04;96236.72;;;21.04;69.64
48216;BME280;34005;48.844;10.098;2022-08-19T05:00:33;96231.44;;;21.04;69.38
48216;BME280;34005;48.844;10.098;2022-08-19T05:03:03;96239.63;;;21.02;68.31
48216;BME280;34005;48.844;10.098;2022-08-19T05:05:33;96244.94;;;21.02;69.76
48216;BME280;34005;48.844;10.098;2022-08-19T05:08:12;96254.75;;;21.02;68.93
48216;BME280;34005;48.844;10.098;2022-08-19T05:10:57;96259.22;;;21.01;69.36
48216;BME280;34005;48.844;10.098;2022-08-19T05:13:26;96263.75;;;21.01;68.79
48216;BME280;34005;48.844;10.098;2022-08-19T05:15:55;96272.75;;;20.99;69.23
48216;BME280;34005;48.844;10.098;2022-08-19T05:18:24;96277.28;;;20.99;69.89
48216;BME280;34005;48.844;10.098;2022-08-19T05:21:11;96279.66;;;21.01;68.78
48216;BME280;34005;48.844;10.098;2022-08-19T05:23:58;96291.88;;;21.02;70.02
48216;BME280;34005;48.844;10.098;2022-08-19T05:26:26;96286.03;;;20.99;69.60
48216;BME280;34005;48.844;10.098;2022-08-19T05:28:54;96288.66;;;20.99;69.58
48216;BME280;34005;48.844;10.098;2022-08-19T05:31:22;96288.66;;;20.99;69.45
48216;BME280;34005;48.844;10.098;2022-08-19T05:33:50;96287.06;;;20.98;69.41
48216;BME280;34005;48.844;10.098;2022-08-19T05:36:17;96288.13;;;20.97;68.75
48216;BME280;34005;48.844;10.098;2022-08-19T05:38:46;96288.66;;;20.99;69.74
48216;BME280;34005;48.844;10.098;2022-08-19T05:41:17;96298.22;;;21.01;68.87
48216;BME280;34005;48.844;10.098;2022-08-19T05:43:44;96292.38;;;20.98;68.65
48216;BME280;34005;48.844;10.098;2022-08-19T05:46:17;96300.88;;;21.01;68.72
48216;BME280;34005;48.844;10.098;2022-08-19T05:48:53;96301.13;;;20.99;69.66
48216;BME280;34005;48.844;10.098;2022-08-19T05:51:23;96306.16;;;21.01;69.60
48216;BME280;34005;48.844;10.098;2022-08-19T05:53:54;96307.22;;;20.99;69.88
48216;BME280;34005;48.844;10.098;2022-08-19T05:56:23;96312.25;;;21.01;69.48
48216;BME280;34005;48.844;10.098;2022-08-19T05:58:51;96305.13;;;21.02;68.68
48216;BME280;34005;48.844;10.098;2022-08-19T06:01:20;96304.59;;;20.99;68.20
48216;BME280;34005;48.844;10.098;2022-08-19T06:03:48;96308.28;;;20.98;68.12
48216;BME280;34005;48.844;10.098;2022-08-19T06:06:15;96304.03;;;20.97;68.41
48216;BME280;34005;48.844;10.098;2022-08-19T06:08:43;96304.03;;;20.97;68.43
48216;BME280;34005;48.844;10.098;2022-08-19T06:11:18;96308.28;;;20.98;70.07
48216;BME280;34005;48.844;10.098;2022-08-19T06:13:49;96305.63;;;20.98;68.89
48216;BME280;34005;48.844;10.098;2022-08-19T06:16:26;96297.66;;;20.98;68.55
48216;BME280;34005;48.844;10.098;2022-08-19T06:18:55;96300.31;;;20.98;69.99
48216;BME280;34005;48.844;10.098;2022-08-19T06:21:26;96299.28;;;20.99;69.10
48216;BME280;34005;48.844;10.098;2022-08-19T06:23:55;96292.38;;;20.98;69.69
48216;BME280;34005;48.844;10.098;2022-08-19T06:26:23;96300.84;;;20.95;69.00
48216;BME280;34005;48.844;10.098;2022-08-19T06:28:53;96298.97;;;20.96;70.27
48216;BME280;34005;48.844;10.098;2022-08-19T06:31:22;96298.72;;;20.97;70.38
48216;BME280;34005;48.844;10.098;2022-08-19T06:33:51;96304.59;;;20.99;69.81
48216;BME280;34005;48.844;10.098;2022-08-19T06:36:20;96305.38;;;21.00;70.61
48216;BME280;34005;48.844;10.098;2022-08-19T06:38:51;96302.47;;;21.02;70.19
48216;BME280;34005;48.844;10.098;2022-08-19T06:41:18;96299.81;;;21.02;69.78
48216;BME280;34005;48.844;10.098;2022-08-19T06:43:46;96310.44;;;21.02;70.21
48216;BME280;34005;48.844;10.098;2022-08-19T06:46:21;96313.09;;;21.02;70.09
48216;BME280;34005;48.844;10.098;2022-08-19T06:48:49;96312.81;;;21.03;70.33
48216;BME280;34005;48.844;10.098;2022-08-19T06:51:20;96310.16;;;21.03;69.79
48216;BME280;34005;48.844;10.098;2022-08-19T06:53:51;96306.16;;;21.01;69.11
48216;BME280;34005;48.844;10.098;2022-08-19T06:56:23;96310.69;;;21.00;68.74
48216;BME280;34005;48.844;10.098;2022-08-19T06:58:51;96310.91;;;20.98;68.50
48216;BME280;34005;48.844;10.098;2022-08-19T07:01:20;96310.38;;;20.96;68.75
48216;BME280;34005;48.844;10.098;2022-08-19T07:03:48;96315.97;;;20.95;69.01
48216;BME280;34005;48.844;10.098;2022-08-19T07:06:17;96313.31;;;20.95;69.63
48216;BME280;34005;48.844;10.098;2022-08-19T07:09:08;96313.56;;;20.93;69.54
48216;BME280;34005;48.844;10.098;2022-08-19T07:11:37;96308.25;;;20.93;70.49
48216;BME280;34005;48.844;10.098;2022-08-19T07:14:05;96316.19;;;20.93;69.85
48216;BME280;34005;48.844;10.098;2022-08-19T07:16:46;96314.59;;;20.92;71.10
48216;BME280;34005;48.844;10.098;2022-08-19T07:19:15;96311.69;;;20.94;70.54
48216;BME280;34005;48.844;10.098;2022-08-19T07:21:45;96317.00;;;20.94;70.27
48216;BME280;34005;48.844;10.098;2022-08-19T07:24:12;96319.88;;;20.92;70.42
48216;BME280;34005;48.844;10.098;2022-08-19T07:26:43;96309.81;;;20.89;70.06
48216;BME280;34005;48.844;10.098;2022-08-19T07:29:12;96317.75;;;20.89;70.93
48216;BME280;34005;48.844;10.098;2022-08-19T07:31:40;96315.09;;;20.89;71.28
48216;BME280;34005;48.844;10.098;2022-08-19T07:34:12;96328.38;;;20.89;70.40
48216;BME280;34005;48.844;10.098;2022-08-19T07:36:42;96327.03;;;20.87;70.49
48216;BME280;34005;48.844;10.098;2022-08-19T07:39:13;96337.09;;;20.90;71.64
48216;BME280;34005;48.844;10.098;2022-08-19T07:41:41;96335.28;;;20.90;70.66
48216;BME280;34005;48.844;10.098;2022-08-19T07:44:10;96338.72;;;20.91;71.12
48216;BME280;34005;48.844;10.098;2022-08-19T07:46:41;96340.59;;;20.90;70.40
48216;BME280;34005;48.844;10.098;2022-08-19T07:49:15;96347.72;;;20.90;70.11
48216;BME280;34005;48.844;10.098;2022-08-19T07:51:46;96341.63;;;20.89;70.54
48216;BME280;34005;48.844;10.098;2022-08-19T07:54:15;96341.88;;;20.88;69.94
48216;BME280;34005;48.844;10.098;2022-08-19T07:56:43;96344.78;;;20.86;70.04
48216;BME280;34005;48.844;10.098;2022-08-19T07:59:11;96344.25;;;20.84;69.87
48216;BME280;34005;48.844;10.098;2022-08-19T08:01:39;96349.53;;;20.84;70.48
48216;BME280;34005;48.844;10.098;2022-08-19T08:04:07;96336.84;;;20.86;70.79
48216;BME280;34005;48.844;10.098;2022-08-19T08:06:54;96345.34;;;20.88;70.27
48216;BME280;34005;48.844;10.098;2022-08-19T08:09:42;96336.84;;;20.86;69.73
48216;BME280;34005;48.844;10.098;2022-08-19T08:12:18;96341.31;;;20.86;69.84
48216;BME280;34005;48.844;10.098;2022-08-19T08:15:02;96345.81;;;20.85;69.87
48216;BME280;34005;48.844;10.098;2022-08-19T08:17:34;96338.66;;;20.86;70.23
48216;BME280;34005;48.844;10.098;2022-08-19T08:20:17;96334.72;;;20.88;70.89
48216;BME280;34005;48.844;10.098;2022-08-19T08:22:47;96339.50;;;20.91;71.23
48216;BME280;34005;48.844;10.098;2022-08-19T08:25:34;96332.09;;;20.93;71.09
48216;BME280;34005;48.844;10.098;2022-08-19T08:28:03;96335.78;;;20.92;68.99
48216;BME280;34005;48.844;10.098;2022-08-19T08:30:31;96333.16;;;20.92;68.38
48216;BME280;34005;48.844;10.098;2022-08-19T08:33:02;96337.94;;;20.90;68.14
48216;BME280;34005;48.844;10.098;2022-08-19T08:35:30;96334.22;;;20.91;68.52
48216;BME280;34005;48.844;10.098;2022-08-19T08:37:59;96340.03;;;20.88;67.75
48216;BME280;34005;48.844;10.098;2022-08-19T08:40:30;96336.31;;;20.89;68.95
48216;BME280;34005;48.844;10.098;2022-08-19T08:43:03;96332.63;;;20.90;68.14
48216;BME280;34005;48.844;10.098;2022-08-19T08:45:43;96330.78;;;20.91;68.58
48216;BME280;34005;48.844;10.098;2022-08-19T08:48:24;96336.63;;;20.93;69.02
48216;BME280;34005;48.844;10.098;2022-08-19T08:50:54;96339.00;;;20.94;68.30
48216;BME280;34005;48.844;10.098;2022-08-19T08:53:25;96344.31;;;20.94;67.58
48216;BME280;34005;48.844;10.098;2022-08-19T08:55:58;96340.59;;;20.95;67.27
48216;BME280;34005;48.844;10.098;2022-08-19T08:58:33;96340.84;;;20.94;67.91
48216;BME280;34005;48.844;10.098;2022-08-19T09:01:09;96339.81;;;20.95;67.63
48216;BME280;34005;48.844;10.098;2022-08-19T09:03:39;96344.84;;;20.96;68.37
48216;BME280;34005;48.844;10.098;2022-08-19T09:06:13;96350.69;;;20.98;68.36
48216;BME280;34005;48.844;10.098;2022-08-19T09:08:48;96342.50;;;21.00;68.42
48216;BME280;34005;48.844;10.098;2022-08-19T09:11:37;96338.53;;;21.03;68.47
48216;BME280;34005;48.844;10.098;2022-08-19T09:14:15;96339.06;;;21.05;67.96
48216;BME280;34005;48.844;10.098;2022-08-19T09:17:07;96350.47;;;21.05;67.39
48216;BME280;34005;48.844;10.098;2022-08-19T09:19:49;96349.44;;;21.06;66.94
48216;BME280;34005;48.844;10.098;2022-08-19T09:22:17;96345.47;;;21.09;66.92
48216;BME280;34005;48.844;10.098;2022-08-19T09:24:54;96352.88;;;21.07;66.50
48216;BME280;34005;48.844;10.098;2022-08-19T09:27:23;96350.47;;;21.05;66.12
48216;BME280;34005;48.844;10.098;2022-08-19T09:30:13;96347.03;;;21.05;66.42
48216;BME280;34005;48.844;10.098;2022-08-19T09:32:43;96347.03;;;21.05;66.06
48216;BME280;34005;48.844;10.098;2022-08-19T09:35:13;96348.66;;;21.06;66.22
48216;BME280;34005;48.844;10.098;2022-08-19T09:37:41;96347.59;;;21.07;66.05
48216;BME280;34005;48.844;10.098;2022-08-19T09:40:12;96343.06;;;21.07;66.28
48216;BME280;34005;48.844;10.098;2022-08-19T09:42:41;96342.03;;;21.08;66.24
48216;BME280;34005;48.844;10.098;2022-08-19T09:45:18;96341.75;;;21.10;66.61
48216;BME280;34005;48.844;10.098;2022-08-19T09:47:48;96341.50;;;21.11;66.57
48216;BME280;34005;48.844;10.098;2022-08-19T09:50:19;96338.06;;;21.11;66.55
48216;BME280;34005;48.844;10.098;2022-08-19T09:52:47;96339.09;;;21.10;65.72
48216;BME280;34005;48.844;10.098;2022-08-19T09:55:22;96340.16;;;21.09;65.94
48216;BME280;34005;48.844;10.098;2022-08-19T09:57:57;96339.38;;;21.08;66.12
48216;BME280;34005;48.844;10.098;2022-08-19T10:00:25;96345.47;;;21.09;66.07
48216;BME280;34005;48.844;10.098;2022-08-19T10:02:52;96347.59;;;21.07;65.79
48216;BME280;34005;48.844;10.098;2022-08-19T10:05:20;96352.88;;;21.07;65.73
48216;BME280;34005;48.844;10.098;2022-08-19T10:08:08;96352.34;;;21.05;66.33
48216;BME280;34005;48.844;10.098;2022-08-19T10:10:40;96355.22;;;21.03;65.64
48216;BME280;34005;48.844;10.098;2022-08-19T10:13:13;96352.03;;;21.01;66.11
48216;BME280;34005;48.844;10.098;2022-08-19T10:15:41;96364.50;;;21.01;66.68
48216;BME280;34005;48.844;10.098;2022-08-19T10:18:15;96374.88;;;21.02;66.13
48216;BME280;34005;48.844;10.098;2022-08-19T10:20:43;96367.69;;;21.03;66.14
48216;BME280;34005;48.844;10.098;2022-08-19T10:23:17;96375.66;;;21.03;66.08
48216;BME280;34005;48.844;10.098;2022-08-19T10:25:47;96373.00;;;21.03;66.00
48216;BME280;34005;48.844;10.098;2022-08-19T10:28:15;96364.00;;;21.04;65.97
48216;BME280;34005;48.844;10.098;2022-08-19T10:30:46;96370.91;;;21.05;66.36
48216;BME280;34005;48.844;10.098;2022-08-19T10:33:14;96370.91;;;21.05;66.23
48216;BME280;34005;48.844;10.098;2022-08-19T10:36:02;96371.97;;;21.04;66.16
48216;BME280;34005;48.844;10.098;2022-08-19T10:38:30;96377.28;;;21.04;66.27
48216;BME280;34005;48.844;10.098;2022-08-19T10:41:06;96383.38;;;21.04;66.28
48216;BME280;34005;48.844;10.098;2022-08-19T10:43:34;96382.31;;;21.05;66.43
48216;BME280;34005;48.844;10.098;2022-08-19T10:46:04;96382.31;;;21.05;66.80
48216;BME280;34005;48.844;10.098;2022-08-19T10:48:39;96383.91;;;21.06;67.04
48216;BME280;34005;48.844;10.098;2022-08-19T10:51:06;96382.06;;;21.07;67.18
48216;BME280;34005;48.844;10.098;2022-08-19T10:53:53;96380.75;;;21.09;67.14
48216;BME280;34005;48.844;10.098;2022-08-19T10:56:22;96377.84;;;21.11;68.00
48216;BME280;34005;48.844;10.098;2022-08-19T10:59:07;96381.28;;;21.11;67.72
48216;BME280;34005;48.844;10.098;2022-08-19T11:01:36;96394.56;;;21.11;67.51
48216;BME280;34005;48.844;10.098;2022-08-19T11:04:04;96391.09;;;21.11;68.37
48216;BME280;34005;48.844;10.098;2022-08-19T11:06:35;96395.09;;;21.13;69.49
48216;BME280;34005;48.844;10.098;2022-08-19T11:09:05;96392.69;;;21.12;69.23
48216;BME280;34005;48.844;10.098;2022-08-19T11:11:34;96396.41;;;21.11;69.33
48216;BME280;34005;48.844;10.098;2022-08-19T11:14:06;96388.69;;;21.09;70.21
48216;BME280;34005;48.844;10.098;2022-08-19T11:16:35;96394.53;;;21.06;70.12
48216;BME280;34005;48.844;10.098;2022-08-19T11:19:09;96387.88;;;21.04;70.19
48216;BME280;34005;48.844;10.098;2022-08-19T11:21:38;96394.22;;;21.03;70.78
48216;BME280;34005;48.844;10.098;2022-08-19T11:24:09;96388.13;;;21.02;71.95
48216;BME280;34005;48.844;10.098;2022-08-19T11:26:39;96389.16;;;21.01;71.47
48216;BME280;34005;48.844;10.098;2022-08-19T11:29:09;96383.63;;;21.03;71.75
48216;BME280;34005;48.844;10.098;2022-08-19T11:31:40;96391.03;;;21.01;71.90
48216;BME280;34005;48.844;10.098;2022-08-19T11:34:10;96393.66;;;21.01;72.14
48216;BME280;34005;48.844;10.098;2022-08-19T11:36:40;96392.63;;;21.02;72.31
48216;BME280;34005;48.844;10.098;2022-08-19T11:39:09;96390.22;;;21.00;72.34
48216;BME280;34005;48.844;10.098;2022-08-19T11:41:39;96380.94;;;20.97;72.85
48216;BME280;34005;48.844;10.098;2022-08-19T11:44:07;96384.63;;;20.96;73.38
48216;BME280;34005;48.844;10.098;2022-08-19T11:46:36;96392.03;;;20.94;72.74
48216;BME280;34005;48.844;10.098;2022-08-19T11:49:04;96394.13;;;20.92;72.79
48216;BME280;34005;48.844;10.098;2022-08-19T11:51:39;96388.53;;;20.89;72.75
48216;BME280;34005;48.844;10.098;2022-08-19T11:54:08;96387.75;;;20.88;72.97
48216;BME280;34005;48.844;10.098;2022-08-19T11:56:36;96391.44;;;20.87;72.89
48216;BME280;34005;48.844;10.098;2022-08-19T11:59:06;96392.19;;;20.83;73.21
48216;BME280;34005;48.844;10.098;2022-08-19T12:01:39;96389.25;;;20.79;73.06
48216;BME280;34005;48.844;10.098;2022-08-19T12:04:09;96391.34;;;20.77;73.78
48216;BME280;34005;48.844;10.098;2022-08-19T12:06:39;96391.84;;;20.74;73.35
48216;BME280;34005;48.844;10.098;2022-08-19T12:09:08;96393.97;;;20.72;73.78
48216;BME280;34005;48.844;10.098;2022-08-19T12:11:37;96397.13;;;20.69;73.63
48216;BME280;34005;48.844;10.098;2022-08-19T12:14:09;96400.25;;;20.66;73.67
48216;BME280;34005;48.844;10.098;2022-08-19T12:16:40;96401.88;;;20.67;74.33
48216;BME280;34005;48.844;10.098;2022-08-19T12:19:17;96393.38;;;20.65;74.21
48216;BME280;34005;48.844;10.098;2022-08-19T12:21:48;96393.38;;;20.65;75.04
48216;BME280;34005;48.844;10.098;2022-08-19T12:24:16;96394.16;;;20.65;74.21
48216;BME280;34005;48.844;10.098;2022-08-19T12:26:49;96394.41;;;20.64;75.11
48216;BME280;34005;48.844;10.098;2022-08-19T12:29:20;96397.88;;;20.64;75.54
48216;BME280;34005;48.844;10.098;2022-08-19T12:31:55;96396.25;;;20.63;74.84
48216;BME280;34005;48.844;10.098;2022-08-19T12:34:28;96397.56;;;20.61;75.17
48216;BME280;34005;48.844;10.098;2022-08-19T12:36:57;96394.38;;;20.58;74.69
48216;BME280;34005;48.844;10.098;2022-08-19T12:39:25;96399.09;;;20.56;75.07
48216;BME280;34005;48.844;10.098;2022-08-19T12:41:52;96404.38;;;20.56;75.09
48216;BME280;34005;48.844;10.098;2022-08-19T12:44:22;96403.38;;;20.57;76.19
48216;BME280;34005;48.844;10.098;2022-08-19T12:46:57;96399.31;;;20.55;75.04
48216;BME280;34005;48.844;10.098;2022-08-19T12:49:27;96400.63;;;20.52;74.98
48216;BME280;34005;48.844;10.098;2022-08-19T12:52:15;96400.63;;;20.52;75.27
48216;BME280;34005;48.844;10.098;2022-08-19T12:54:48;96400.06;;;20.50;75.08
48216;BME280;34005;48.844;10.098;2022-08-19T12:57:21;96411.19;;;20.47;75.26
48216;BME280;34005;48.844;10.098;2022-08-19T12:59:59;96408.78;;;20.46;75.45
48216;BME280;34005;48.844;10.098;2022-08-19T13:02:30;96416.16;;;20.44;75.71
48216;BME280;34005;48.844;10.098;2022-08-19T13:05:06;96415.63;;;20.42;76.13
48216;BME280;34005;48.844;10.098;2022-08-19T13:07:35;96412.19;;;20.41;76.30
48216;BME280;34005;48.844;10.098;2022-08-19T13:10:04;96417.47;;;20.41;75.88
48216;BME280;34005;48.844;10.098;2022-08-19T13:12:32;96412.69;;;20.38;76.24
48216;BME280;34005;48.844;10.098;2022-08-19T13:15:01;96412.13;;;20.36;76.07
48216;BME280;34005;48.844;10.098;2022-08-19T13:17:36;96415.81;;;20.35;76.29